createdAt,value
2018-09-28T00:00:14.691Z,1016.76
2018-09-28T00:01:14.663Z,1016.73
2018-09-28T00:02:14.637Z,1016.76
2018-09-28T00:03:14.614Z,1016.78
2018-09-28T00:04:14.586Z,1016.81
2018-09-28T00:05:14.558Z,1016.78
2018-09-28T00:06:14.531Z,1016.78
2018-09-28T00:07:14.505Z,1016.78
2018-09-28T00:08:14.479Z,1016.77
2018-09-28T00:09:14.454Z,1016.83
2018-09-28T00:10:14.427Z,1016.82
2018-09-28T00:11:14.401Z,1016.83
2018-09-28T00:12:14.376Z,1016.80
2018-09-28T00:13:14.349Z,1016.86
2018-09-28T00:14:14.326Z,1016.79
2018-09-28T00:15:14.296Z,1016.85
2018-09-28T00:16:14.270Z,1016.86
2018-09-28T00:17:14.244Z,1016.79
2018-09-28T00:18:14.218Z,1016.87
2018-09-28T00:19:14.192Z,1016.81
2018-09-28T00:20:14.170Z,1016.75
2018-09-28T00:21:14.153Z,1016.81
2018-09-28T00:22:14.112Z,1016.83
2018-09-28T00:23:14.093Z,1016.86
2018-09-28T00:24:14.061Z,1016.87
2018-09-28T00:25:14.036Z,1016.88
2018-09-28T00:26:14.009Z,1016.83
2018-09-28T00:27:13.983Z,1016.82
2018-09-28T00:28:13.957Z,1016.74
2018-09-28T00:29:13.930Z,1016.86
2018-09-28T00:30:13.906Z,1016.79
2018-09-28T00:31:13.880Z,1016.82
2018-09-28T00:32:13.851Z,1016.82
2018-09-28T00:33:13.827Z,1016.92
2018-09-28T00:34:13.799Z,1016.87
2018-09-28T00:35:13.779Z,1016.91
2018-09-28T00:36:13.750Z,1016.90
2018-09-28T00:37:13.725Z,1016.91
2018-09-28T00:38:13.695Z,1016.90
2018-09-28T00:39:13.669Z,1016.90
2018-09-28T00:40:13.643Z,1016.93
2018-09-28T00:41:13.617Z,1016.90
2018-09-28T00:42:13.590Z,1016.88
2018-09-28T00:43:13.865Z,1016.88
2018-09-28T00:44:13.539Z,1016.89
2018-09-28T00:45:13.514Z,1016.85
2018-09-28T00:46:13.486Z,1016.94
2018-09-28T00:47:13.460Z,1016.97
2018-09-28T00:48:13.435Z,1016.95
2018-09-28T00:49:13.410Z,1016.97
2018-09-28T00:50:13.383Z,1017.00
2018-09-28T00:51:13.356Z,1016.97
2018-09-28T00:52:13.331Z,1017.03
2018-09-28T00:53:13.311Z,1016.97
2018-09-28T00:54:13.279Z,1017.07
2018-09-28T00:55:13.452Z,1017.03
2018-09-28T00:56:13.227Z,1017.05
2018-09-28T00:57:13.199Z,1017.07
2018-09-28T00:58:13.172Z,1017.08
2018-09-28T00:59:13.150Z,1017.04
2018-09-28T01:00:13.120Z,1017.07
2018-09-28T01:01:13.096Z,1017.05
2018-09-28T01:02:13.067Z,1017.10
2018-09-28T01:03:13.041Z,1017.03
2018-09-28T01:04:13.015Z,1017.02
2018-09-28T01:05:12.989Z,1017.06
2018-09-28T01:06:12.962Z,1017.03
2018-09-28T01:07:12.939Z,1017.08
2018-09-28T01:08:12.910Z,1017.04
2018-09-28T01:09:12.885Z,1017.04
2018-09-28T01:10:12.857Z,1016.99
2018-09-28T01:11:12.831Z,1017.00
2018-09-28T01:12:12.805Z,1017.04
2018-09-28T01:13:12.778Z,1017.06
2018-09-28T01:14:12.751Z,1017.02
2018-09-28T01:15:12.725Z,1017.04
2018-09-28T01:16:12.698Z,1017.04
2018-09-28T01:17:12.673Z,1017.03
2018-09-28T01:18:12.650Z,1017.02
2018-09-28T01:19:12.625Z,1017.03
2018-09-28T01:20:12.618Z,1017.02
2018-09-28T01:21:12.568Z,1017.07
2018-09-28T01:22:12.542Z,1017.04
2018-09-28T01:23:12.516Z,1016.89
2018-09-28T01:24:12.488Z,1017.10
2018-09-28T01:25:12.463Z,1017.02
2018-09-28T01:26:12.440Z,1017.06
2018-09-28T01:27:12.417Z,1017.05
2018-09-28T01:28:12.384Z,1017.07
2018-09-28T01:29:12.357Z,1017.04
2018-09-28T01:30:12.337Z,1017.06
2018-09-28T01:31:12.305Z,1017.18
2018-09-28T01:32:12.279Z,1017.20
2018-09-28T01:33:12.252Z,1017.13
2018-09-28T01:34:12.225Z,1017.20
2018-09-28T01:35:12.198Z,1017.30
2018-09-28T01:36:12.176Z,1017.27
2018-09-28T01:37:12.147Z,1017.17
2018-09-28T01:38:12.121Z,1017.26
2018-09-28T01:39:12.094Z,1017.02
2018-09-28T01:40:12.067Z,1017.28
2018-09-28T01:41:12.041Z,1017.27
2018-09-28T01:42:12.017Z,1017.32
2018-09-28T01:43:11.988Z,1017.30
2018-09-28T01:44:11.962Z,1017.29
2018-09-28T01:45:11.938Z,1017.20
2018-09-28T01:46:11.912Z,1017.26
2018-09-28T01:47:12.084Z,1017.19
2018-09-28T01:48:11.860Z,1017.28
2018-09-28T01:49:11.830Z,1017.10
2018-09-28T01:50:11.805Z,1017.32
2018-09-28T01:51:11.776Z,1017.19
2018-09-28T01:52:11.750Z,1017.22
2018-09-28T01:53:11.731Z,1017.36
2018-09-28T01:54:11.699Z,1017.30
2018-09-28T01:55:11.674Z,1017.38
2018-09-28T01:56:11.644Z,1017.39
2018-09-28T01:57:11.618Z,1017.37
2018-09-28T01:58:11.591Z,1017.41
2018-09-28T01:59:11.564Z,1017.45
2018-09-28T02:00:11.542Z,1017.46
2018-09-28T02:01:11.512Z,1017.51
2018-09-28T02:02:11.484Z,1017.47
2018-09-28T02:03:11.458Z,1017.47
2018-09-28T02:04:11.432Z,1017.52
2018-09-28T02:05:11.405Z,1017.45
2018-09-28T02:06:11.377Z,1017.51
2018-09-28T02:07:11.352Z,1017.48
2018-09-28T02:08:11.528Z,1017.55
2018-09-28T02:09:11.304Z,1017.50
2018-09-28T02:10:11.271Z,1017.45
2018-09-28T02:11:11.245Z,1017.53
2018-09-28T02:12:11.219Z,1017.41
2018-09-28T02:13:11.195Z,1017.48
2018-09-28T02:14:11.165Z,1017.46
2018-09-28T02:15:11.139Z,1017.50
2018-09-28T02:16:11.112Z,1017.41
2018-09-28T02:17:11.099Z,1017.40
2018-09-28T02:18:11.059Z,1017.54
2018-09-28T02:19:11.042Z,1017.51
2018-09-28T02:20:11.006Z,1017.53
2018-09-28T02:21:10.979Z,1017.56
2018-09-28T02:22:11.203Z,1017.54
2018-09-28T02:23:11.134Z,1017.61
2018-09-28T02:24:10.898Z,1017.55
2018-09-28T02:25:10.876Z,1017.57
2018-09-28T02:26:10.845Z,1017.54
2018-09-28T02:27:10.818Z,1017.63
2018-09-28T02:28:10.994Z,1017.60
2018-09-28T02:29:10.787Z,1017.60
2018-09-28T02:30:10.740Z,1017.54
2018-09-28T02:31:10.713Z,1017.58
2018-09-28T02:32:10.689Z,1017.55
2018-09-28T02:33:10.658Z,1017.58
2018-09-28T02:34:10.833Z,1017.64
2018-09-28T02:35:10.608Z,1017.63
2018-09-28T02:36:10.579Z,1017.64
2018-09-28T02:37:10.553Z,1017.65
2018-09-28T02:38:10.729Z,1017.70
2018-09-28T02:39:10.497Z,1017.71
2018-09-28T02:40:10.871Z,1017.71
2018-09-28T02:41:10.445Z,1017.74
2018-09-28T02:42:10.419Z,1017.73
2018-09-28T02:43:10.393Z,1017.71
2018-09-28T02:44:10.364Z,1017.70
2018-09-28T02:45:10.337Z,1017.77
2018-09-28T02:46:10.309Z,1017.76
2018-09-28T02:47:10.288Z,1017.75
2018-09-28T02:48:10.255Z,1017.76
2018-09-28T02:49:10.230Z,1017.82
2018-09-28T02:50:10.206Z,1017.79
2018-09-28T02:51:10.175Z,1017.83
2018-09-28T02:52:10.149Z,1017.91
2018-09-28T02:53:10.154Z,1017.85
2018-09-28T02:54:10.097Z,1017.86
2018-09-28T02:55:10.077Z,1017.83
2018-09-28T02:56:10.041Z,1017.79
2018-09-28T02:57:10.022Z,1017.78
2018-09-28T02:58:09.990Z,1017.87
2018-09-28T02:59:09.964Z,1017.88
2018-09-28T03:00:09.934Z,1017.90
2018-09-28T03:01:09.909Z,1017.94
2018-09-28T03:02:09.882Z,1017.87
2018-09-28T03:03:09.854Z,1017.90
2018-09-28T03:04:09.828Z,1017.90
2018-09-28T03:05:09.801Z,1018.00
2018-09-28T03:06:09.790Z,1018.06
2018-09-28T03:07:09.748Z,1017.78
2018-09-28T03:08:09.720Z,1018.02
2018-09-28T03:09:09.695Z,1017.96
2018-09-28T03:10:09.666Z,1017.89
2018-09-28T03:11:09.640Z,1018.06
2018-09-28T03:12:09.612Z,1018.03
2018-09-28T03:13:09.586Z,1018.01
2018-09-28T03:14:09.562Z,1018.03
2018-09-28T03:15:09.589Z,1018.02
2018-09-28T03:16:09.505Z,1018.05
2018-09-28T03:17:09.480Z,1018.08
2018-09-28T03:18:09.451Z,1018.08
2018-09-28T03:19:09.425Z,1018.12
2018-09-28T03:20:09.401Z,1018.16
2018-09-28T03:21:09.370Z,1018.17
2018-09-28T03:22:09.343Z,1018.11
2018-09-28T03:23:09.321Z,1018.17
2018-09-28T03:24:09.290Z,1018.18
2018-09-28T03:25:09.264Z,1018.16
2018-09-28T03:26:09.237Z,1018.19
2018-09-28T03:27:09.208Z,1018.18
2018-09-28T03:28:09.187Z,1018.19
2018-09-28T03:29:09.155Z,1018.28
2018-09-28T03:30:09.131Z,1018.23
2018-09-28T03:31:09.101Z,1018.23
2018-09-28T03:32:09.075Z,1018.18
2018-09-28T03:33:09.050Z,1018.10
2018-09-28T03:34:09.020Z,1018.22
2018-09-28T03:35:08.996Z,1018.15
2018-09-28T03:36:08.969Z,1018.24
2018-09-28T03:37:08.939Z,1018.28
2018-09-28T03:38:08.914Z,1018.11
2018-09-28T03:39:08.885Z,1018.19
2018-09-28T03:40:08.863Z,1018.26
2018-09-28T03:41:08.831Z,1018.25
2018-09-28T03:42:08.804Z,1018.32
2018-09-28T03:43:08.777Z,1018.02
2018-09-28T03:44:08.754Z,1018.30
2018-09-28T03:45:08.729Z,1018.30
2018-09-28T03:46:08.699Z,1018.28
2018-09-28T03:47:08.670Z,1018.29
2018-09-28T03:48:08.645Z,1018.30
2018-09-28T03:49:08.616Z,1018.34
2018-09-28T03:50:08.588Z,1018.36
2018-09-28T03:51:08.560Z,1018.33
2018-09-28T03:52:08.536Z,1018.35
2018-09-28T03:53:08.507Z,1018.37
2018-09-28T03:54:08.479Z,1018.45
2018-09-28T03:55:08.454Z,1018.36
2018-09-28T03:56:08.426Z,1018.44
2018-09-28T03:57:08.398Z,1018.40
2018-09-28T03:58:08.372Z,1018.37
2018-09-28T03:59:08.345Z,1018.43
2018-09-28T04:00:08.317Z,1018.53
2018-09-28T04:01:08.291Z,1018.45
2018-09-28T04:02:08.264Z,1018.42
2018-09-28T04:03:08.245Z,1018.48
2018-09-28T04:04:08.220Z,1018.49
2018-09-28T04:05:08.189Z,1018.52
2018-09-28T04:06:08.155Z,1018.56
2018-09-28T04:07:08.128Z,1018.58
2018-09-28T04:08:08.104Z,1018.49
2018-09-28T04:09:08.075Z,1018.48
2018-09-28T04:10:08.052Z,1018.61
2018-09-28T04:11:08.020Z,1018.67
2018-09-28T04:12:07.996Z,1018.64
2018-09-28T04:13:07.966Z,1018.59
2018-09-28T04:14:07.938Z,1018.60
2018-09-28T04:15:07.934Z,1018.67
2018-09-28T04:16:07.888Z,1018.67
2018-09-28T04:17:07.857Z,1018.65
2018-09-28T04:18:07.831Z,1018.71
2018-09-28T04:19:07.803Z,1018.76
2018-09-28T04:20:07.776Z,1018.76
2018-09-28T04:21:07.749Z,1018.78
2018-09-28T04:22:07.754Z,1018.75
2018-09-28T04:23:07.695Z,1018.83
2018-09-28T04:24:07.667Z,1018.88
2018-09-28T04:25:07.641Z,1018.88
2018-09-28T04:26:07.616Z,1018.84
2018-09-28T04:27:07.586Z,1018.89
2018-09-28T04:28:07.564Z,1018.86
2018-09-28T04:29:07.532Z,1018.94
2018-09-28T04:30:07.506Z,1018.91
2018-09-28T04:31:07.480Z,1018.92
2018-09-28T04:32:07.454Z,1018.93
2018-09-28T04:33:07.429Z,1019.01
2018-09-28T04:34:07.395Z,1019.00
2018-09-28T04:35:07.369Z,1019.00
2018-09-28T04:36:07.341Z,1019.00
2018-09-28T04:37:07.317Z,1019.06
2018-09-28T04:38:07.289Z,1019.07
2018-09-28T04:39:07.260Z,1019.06
2018-09-28T04:40:07.232Z,1019.08
2018-09-28T04:41:07.208Z,1019.07
2018-09-28T04:42:07.179Z,1018.98
2018-09-28T04:43:07.157Z,1019.02
2018-09-28T04:44:07.126Z,1019.00
2018-09-28T04:45:07.132Z,1019.13
2018-09-28T04:46:07.071Z,1019.20
2018-09-28T04:47:07.050Z,1019.24
2018-09-28T04:48:07.020Z,1019.08
2018-09-28T04:49:06.988Z,1019.24
2018-09-28T04:50:06.961Z,1019.27
2018-09-28T04:51:06.934Z,1019.31
2018-09-28T04:52:06.907Z,1019.26
2018-09-28T04:53:06.880Z,1019.40
2018-09-28T04:54:06.853Z,1019.38
2018-09-28T04:55:06.825Z,1019.37
2018-09-28T04:56:06.814Z,1019.39
2018-09-28T04:57:06.771Z,1019.33
2018-09-28T04:58:06.744Z,1019.40
2018-09-28T04:59:06.717Z,1019.40
2018-09-28T05:00:06.690Z,1019.41
2018-09-28T05:01:06.666Z,1019.36
2018-09-28T05:02:06.642Z,1019.41
2018-09-28T05:03:06.608Z,1019.45
2018-09-28T05:04:06.582Z,1019.42
2018-09-28T05:05:06.552Z,1019.44
2018-09-28T05:06:06.524Z,1019.44
2018-09-28T05:07:06.499Z,1019.47
2018-09-28T05:08:06.474Z,1019.46
2018-09-28T05:09:06.446Z,1019.45
2018-09-28T05:10:06.420Z,1019.50
2018-09-28T05:11:06.389Z,1019.42
2018-09-28T05:12:06.363Z,1019.47
2018-09-28T05:13:06.379Z,1019.48
2018-09-28T05:14:06.309Z,1019.52
2018-09-28T05:15:06.284Z,1019.57
2018-09-28T05:16:06.253Z,1019.53
2018-09-28T05:17:06.227Z,1019.45
2018-09-28T05:18:06.199Z,1019.55
2018-09-28T05:19:06.175Z,1019.55
2018-09-28T05:20:06.145Z,1019.56
2018-09-28T05:21:06.117Z,1019.71
2018-09-28T05:22:06.090Z,1019.60
2018-09-28T05:23:06.064Z,1019.62
2018-09-28T05:24:06.039Z,1019.66
2018-09-28T05:25:06.084Z,1019.70
2018-09-28T05:26:05.981Z,1019.63
2018-09-28T05:27:05.953Z,1019.68
2018-09-28T05:28:05.927Z,1019.66
2018-09-28T05:29:05.899Z,1019.67
2018-09-28T05:30:05.872Z,1019.70
2018-09-28T05:31:05.852Z,1019.66
2018-09-28T05:32:05.981Z,1019.70
2018-09-28T05:33:05.842Z,1019.78
2018-09-28T05:34:05.763Z,1019.75
2018-09-28T05:35:05.736Z,1019.78
2018-09-28T05:36:05.707Z,1019.80
2018-09-28T05:37:05.695Z,1019.87
2018-09-28T05:38:05.653Z,1019.91
2018-09-28T05:39:05.638Z,1019.96
2018-09-28T05:40:05.596Z,1019.97
2018-09-28T05:41:05.629Z,1019.99
2018-09-28T05:42:05.545Z,1019.98
2018-09-28T05:43:05.520Z,1020.05
2018-09-28T05:44:05.487Z,1020.10
2018-09-28T05:45:05.460Z,1020.12
2018-09-28T05:46:05.431Z,1020.20
2018-09-28T05:47:05.407Z,1020.24
2018-09-28T05:48:05.378Z,1020.21
2018-09-28T05:49:05.360Z,1020.28
2018-09-28T05:50:05.322Z,1020.35
2018-09-28T05:51:05.294Z,1020.43
2018-09-28T05:52:05.268Z,1020.37
2018-09-28T05:53:05.241Z,1020.38
2018-09-28T05:54:05.218Z,1020.30
2018-09-28T05:55:05.188Z,1020.42
2018-09-28T05:56:05.159Z,1020.43
2018-09-28T05:57:05.132Z,1020.41
2018-09-28T05:58:05.105Z,1020.45
2018-09-28T05:59:05.076Z,1020.45
2018-09-28T06:00:05.051Z,1020.47
2018-09-28T06:01:05.024Z,1020.48
2018-09-28T06:02:04.997Z,1020.46
2018-09-28T06:03:04.969Z,1020.46
2018-09-28T06:04:04.943Z,1020.53
2018-09-28T06:05:04.920Z,1020.50
2018-09-28T06:06:04.891Z,1020.56
2018-09-28T06:07:04.862Z,1020.56
2018-09-28T06:08:04.841Z,1020.55
2018-09-28T06:09:04.809Z,1020.54
2018-09-28T06:10:04.781Z,1020.56
2018-09-28T06:11:04.756Z,1020.57
2018-09-28T06:12:04.938Z,1020.64
2018-09-28T06:13:04.905Z,1020.65
2018-09-28T06:14:04.674Z,1020.66
2018-09-28T06:15:04.649Z,1020.68
2018-09-28T06:16:04.626Z,1020.78
2018-09-28T06:17:04.598Z,1020.70
2018-09-28T06:18:04.666Z,1020.78
2018-09-28T06:19:04.548Z,1020.83
2018-09-28T06:20:04.719Z,1020.86
2018-09-28T06:21:04.491Z,1020.85
2018-09-28T06:22:04.464Z,1020.93
2018-09-28T06:23:04.451Z,1020.96
2018-09-28T06:24:04.449Z,1020.93
2018-09-28T06:25:04.386Z,1021.03
2018-09-28T06:26:04.402Z,1021.07
2018-09-28T06:27:04.335Z,1021.10
2018-09-28T06:28:04.307Z,1021.07
2018-09-28T06:29:04.281Z,1021.21
2018-09-28T06:30:04.303Z,1021.18
2018-09-28T06:31:04.231Z,1021.20
2018-09-28T06:32:04.204Z,1021.25
2018-09-28T06:33:04.190Z,1021.28
2018-09-28T06:34:04.153Z,1021.29
2018-09-28T06:35:04.128Z,1021.06
2018-09-28T06:36:04.118Z,1021.05
2018-09-28T06:37:04.077Z,1021.02
2018-09-28T06:38:04.052Z,1021.14
2018-09-28T06:39:04.025Z,1021.12
2018-09-28T06:40:03.999Z,1021.47
2018-09-28T06:41:03.975Z,1021.44
2018-09-28T06:42:03.996Z,1021.53
2018-09-28T06:43:03.923Z,1021.50
2018-09-28T06:44:03.898Z,1021.24
2018-09-28T06:45:04.085Z,1021.20
2018-09-28T06:46:03.847Z,1021.45
2018-09-28T06:47:03.827Z,1021.67
2018-09-28T06:48:04.046Z,1021.71
2018-09-28T06:49:03.773Z,1021.71
2018-09-28T06:50:03.747Z,1021.66
2018-09-28T06:51:03.722Z,1021.67
2018-09-28T06:52:03.700Z,1021.64
2018-09-28T06:53:03.674Z,1021.69
2018-09-28T06:54:03.670Z,1021.86
2018-09-28T06:55:03.622Z,1021.83
2018-09-28T06:56:03.602Z,1022.00
2018-09-28T06:57:03.573Z,1022.00
2018-09-28T06:58:03.559Z,1022.09
2018-09-28T06:59:03.522Z,1022.17
2018-09-28T07:00:03.516Z,1022.20
2018-09-28T07:01:03.473Z,1022.06
2018-09-28T07:02:03.453Z,1021.97
2018-09-28T07:03:03.474Z,1022.03
2018-09-28T07:04:03.438Z,1022.08
2018-09-28T07:05:03.578Z,1022.08
2018-09-28T07:06:03.407Z,1022.08
2018-09-28T07:07:03.326Z,1022.13
2018-09-28T07:08:03.301Z,1022.14
2018-09-28T07:09:03.278Z,1022.29
2018-09-28T07:10:03.254Z,1022.23
2018-09-28T07:11:03.231Z,1022.19
2018-09-28T07:12:03.241Z,1022.35
2018-09-28T07:13:03.180Z,1022.35
2018-09-28T07:14:03.158Z,1022.34
2018-09-28T07:15:03.137Z,1022.39
2018-09-28T07:16:03.109Z,1022.26
2018-09-28T07:17:03.086Z,1022.23
2018-09-28T07:18:03.238Z,1022.29
2018-09-28T07:19:03.037Z,1022.08
2018-09-28T07:20:03.380Z,1022.03
2018-09-28T07:21:02.990Z,1021.97
2018-09-28T07:22:02.968Z,1022.17
2018-09-28T07:23:02.946Z,1022.19
2018-09-28T07:24:02.995Z,1022.44
2018-09-28T07:25:02.907Z,1022.21
2018-09-28T07:26:02.870Z,1022.12
2018-09-28T07:27:02.849Z,1022.04
2018-09-28T07:28:02.823Z,1022.28
2018-09-28T07:29:02.798Z,1022.47
2018-09-28T07:30:02.790Z,1022.51
2018-09-28T07:31:02.801Z,1022.66
2018-09-28T07:32:02.727Z,1022.49
2018-09-28T07:33:02.712Z,1022.37
2018-09-28T07:34:02.685Z,1022.46
2018-09-28T07:35:02.654Z,1023.04
2018-09-28T07:36:02.736Z,1022.55
2018-09-28T07:37:02.776Z,1022.64
2018-09-28T07:38:02.586Z,1022.29
2018-09-28T07:39:02.566Z,1022.69
2018-09-28T07:40:02.533Z,1023.17
2018-09-28T07:41:02.510Z,1023.37
2018-09-28T07:42:02.499Z,1023.41
2018-09-28T07:43:02.463Z,1023.33
2018-09-28T07:44:02.443Z,1023.53
2018-09-28T07:45:02.415Z,1023.57
2018-09-28T07:46:02.390Z,1023.58
2018-09-28T07:47:02.569Z,1023.57
2018-09-28T07:48:02.345Z,1023.72
2018-09-28T07:49:02.536Z,1023.76
2018-09-28T07:50:02.499Z,1023.75
2018-09-28T07:51:02.286Z,1023.74
2018-09-28T07:52:02.251Z,1023.70
2018-09-28T07:53:02.230Z,1023.86
2018-09-28T07:54:02.220Z,1022.87
2018-09-28T07:55:02.185Z,1022.42
2018-09-28T07:56:02.161Z,1022.87
2018-09-28T07:57:02.139Z,1022.56
2018-09-28T07:58:02.114Z,1022.58
2018-09-28T07:59:02.100Z,1022.46
2018-09-28T08:00:02.072Z,1022.38
2018-09-28T08:01:02.050Z,1022.21
2018-09-28T08:02:02.034Z,1022.19
2018-09-28T08:03:02.002Z,1022.36
2018-09-28T08:04:01.983Z,1022.12
2018-09-28T08:05:01.955Z,1022.27
2018-09-28T08:06:01.931Z,1022.37
2018-09-28T08:07:01.911Z,1022.66
2018-09-28T08:08:01.882Z,1022.55
2018-09-28T08:09:01.859Z,1022.68
2018-09-28T08:10:01.835Z,1022.95
2018-09-28T08:11:01.810Z,1023.00
2018-09-28T08:12:01.989Z,1023.08
2018-09-28T08:13:01.970Z,1022.89
2018-09-28T08:14:01.738Z,1022.81
2018-09-28T08:15:01.715Z,1022.87
2018-09-28T08:16:01.691Z,1023.21
2018-09-28T08:17:01.669Z,1023.78
2018-09-28T08:18:01.749Z,1023.80
2018-09-28T08:19:01.619Z,1024.01
2018-09-28T08:20:01.596Z,1023.55
2018-09-28T08:21:01.575Z,1023.16
2018-09-28T08:22:01.549Z,1023.29
2018-09-28T08:23:01.747Z,1023.78
2018-09-28T08:24:01.503Z,1024.00
2018-09-28T08:25:01.480Z,1023.98
2018-09-28T08:26:01.659Z,1023.83
2018-09-28T08:27:01.437Z,1023.49
2018-09-28T08:28:01.612Z,1023.52
2018-09-28T08:29:01.388Z,1023.40
2018-09-28T08:30:01.367Z,1023.46
2018-09-28T08:31:01.346Z,1023.92
2018-09-28T08:32:01.320Z,1024.10
2018-09-28T08:33:01.298Z,1024.20
2018-09-28T08:34:01.275Z,1024.02
2018-09-28T08:35:01.253Z,1024.07
2018-09-28T08:36:01.236Z,1024.15
2018-09-28T08:37:01.210Z,1024.11
2018-09-28T08:38:01.185Z,1023.70
2018-09-28T08:39:01.165Z,1023.41
2018-09-28T08:40:01.144Z,1023.17
2018-09-28T08:41:01.120Z,1022.97
2018-09-28T08:42:01.095Z,1022.92
2018-09-28T08:43:01.075Z,1022.94
2018-09-28T08:44:01.053Z,1022.75
2018-09-28T08:45:01.032Z,1022.74
2018-09-28T08:46:01.008Z,1022.76
2018-09-28T08:47:00.985Z,1022.82
2018-09-28T08:48:00.965Z,1022.75
2018-09-28T08:49:00.969Z,1022.81
2018-09-28T08:50:00.921Z,1022.75
2018-09-28T08:51:00.899Z,1022.79
2018-09-28T08:52:00.877Z,1022.73
2018-09-28T08:53:00.854Z,1022.80
2018-09-28T08:54:00.832Z,1022.67
2018-09-28T08:55:00.813Z,1022.72
2018-09-28T08:56:00.789Z,1022.74
2018-09-28T08:57:00.768Z,1022.81
2018-09-28T08:58:00.747Z,1022.85
2018-09-28T08:59:00.724Z,1022.83
2018-09-28T09:00:00.701Z,1022.70
2018-09-28T09:01:00.684Z,1022.69
2018-09-28T09:02:00.686Z,1022.78
2018-09-28T09:03:00.638Z,1022.51
2018-09-28T09:04:00.618Z,1022.76
2018-09-28T09:05:00.595Z,1022.71
2018-09-28T09:06:00.574Z,1022.85
2018-09-28T09:07:00.559Z,1022.80
2018-09-28T09:08:00.530Z,1022.82
2018-09-28T09:09:00.511Z,1022.77
2018-09-28T09:10:00.489Z,1022.73
2018-09-28T09:11:00.469Z,1022.80
2018-09-28T09:12:00.443Z,1022.93
2018-09-28T09:13:00.427Z,1022.91
2018-09-28T09:14:00.400Z,1022.91
2018-09-28T09:15:00.378Z,1022.91
2018-09-28T09:16:00.358Z,1022.37
2018-09-28T09:17:00.337Z,1022.95
2018-09-28T09:18:00.404Z,1023.02
2018-09-28T09:19:00.293Z,1023.00
2018-09-28T09:20:00.277Z,1023.06
2018-09-28T09:21:00.247Z,1022.92
2018-09-28T09:22:00.232Z,1023.08
2018-09-28T09:23:00.204Z,1023.04
2018-09-28T09:24:00.490Z,1023.05
2018-09-28T09:25:00.161Z,1023.02
2018-09-28T09:26:00.139Z,1023.11
2018-09-28T09:27:00.319Z,1022.96
2018-09-28T09:28:00.296Z,1023.07
2018-09-28T09:29:00.280Z,1023.10
2018-09-28T09:30:00.092Z,1023.16
2018-09-28T09:31:00.031Z,1023.02
2018-09-28T09:32:00.015Z,1023.03
2018-09-28T09:32:59.986Z,1023.07
2018-09-28T09:33:59.965Z,1023.12
2018-09-28T09:34:59.944Z,1023.11
2018-09-28T09:35:59.921Z,1023.09
2018-09-28T09:36:59.903Z,1023.04
2018-09-28T09:37:59.876Z,1022.96
2018-09-28T09:38:59.854Z,1023.11
2018-09-28T09:39:59.834Z,1023.03
2018-09-28T09:40:59.870Z,1022.95
2018-09-28T09:41:59.787Z,1023.04
2018-09-28T09:42:59.765Z,1022.96
2018-09-28T09:43:59.751Z,1022.94
2018-09-28T09:44:59.721Z,1023.10
2018-09-28T09:45:59.703Z,1023.19
2018-09-28T09:46:59.676Z,1023.22
2018-09-28T09:47:59.657Z,1023.18
2018-09-28T09:48:59.633Z,1023.17
2018-09-28T09:49:59.811Z,1023.15
2018-09-28T09:50:59.588Z,1023.02
2018-09-28T09:51:59.565Z,1022.75
2018-09-28T09:52:59.544Z,1022.78
2018-09-28T09:53:59.521Z,1022.92
2018-09-28T09:54:59.501Z,1022.89
2018-09-28T09:55:59.479Z,1022.85
2018-09-28T09:56:59.461Z,1022.73
2018-09-28T09:57:59.458Z,1022.92
2018-09-28T09:58:59.442Z,1023.07
2018-09-28T09:59:59.592Z,1023.05
2018-09-28T10:00:59.569Z,1023.06
2018-09-28T10:01:59.343Z,1023.03
2018-09-28T10:02:59.321Z,1022.95
2018-09-28T10:03:59.304Z,1022.93
2018-09-28T10:04:59.278Z,1023.00
2018-09-28T10:05:59.253Z,1023.04
2018-09-28T10:06:59.240Z,1023.03
2018-09-28T10:07:59.415Z,1022.99
2018-09-28T10:08:59.400Z,1022.95
2018-09-28T10:09:59.172Z,1022.96
2018-09-28T10:10:59.349Z,1022.96
2018-09-28T10:11:59.326Z,1022.94
2018-09-28T10:12:59.304Z,1022.94
2018-09-28T10:13:59.080Z,1022.98
2018-09-28T10:14:59.058Z,1022.96
2018-09-28T10:15:59.241Z,1023.06
2018-09-28T10:16:59.218Z,1023.05
2018-09-28T10:17:58.993Z,1023.09
2018-09-28T10:18:58.972Z,1023.14
2018-09-28T10:19:59.153Z,1023.10
2018-09-28T10:20:59.132Z,1023.09
2018-09-28T10:21:59.110Z,1023.19
2018-09-28T10:22:59.090Z,1023.21
2018-09-28T10:23:59.069Z,1023.08
2018-09-28T10:24:59.048Z,1023.04
2018-09-28T10:25:58.828Z,1023.05
2018-09-28T10:26:58.828Z,1022.92
2018-09-28T10:27:58.798Z,1022.83
2018-09-28T10:28:58.965Z,1022.99
2018-09-28T10:29:58.746Z,1022.91
2018-09-28T10:30:58.922Z,1022.87
2018-09-28T10:31:58.903Z,1022.88
2018-09-28T10:32:58.681Z,1022.90
2018-09-28T10:33:58.658Z,1022.95
2018-09-28T10:34:58.637Z,1022.95
2018-09-28T10:35:58.616Z,1023.01
2018-09-28T10:36:58.601Z,1022.96
2018-09-28T10:37:58.573Z,1022.95
2018-09-28T10:38:58.550Z,1023.12
2018-09-28T10:39:58.530Z,1023.20
2018-09-28T10:40:58.566Z,1023.38
2018-09-28T10:41:58.486Z,1023.00
2018-09-28T10:42:58.466Z,1023.24
2018-09-28T10:43:58.442Z,1022.88
2018-09-28T10:44:58.422Z,1023.49
2018-09-28T10:45:58.399Z,1023.54
2018-09-28T10:46:58.382Z,1023.47
2018-09-28T10:47:58.363Z,1023.76
2018-09-28T10:48:58.348Z,1023.82
2018-09-28T10:49:58.314Z,1023.88
2018-09-28T10:50:58.353Z,1023.91
2018-09-28T10:51:58.368Z,1023.28
2018-09-28T10:52:58.279Z,1024.30
2018-09-28T10:53:58.445Z,1024.57
2018-09-28T10:54:58.410Z,1024.76
2018-09-28T10:56:01.213Z,1025.02
2018-09-28T10:56:58.169Z,1023.00
2018-09-28T10:57:58.348Z,1022.95
2018-09-28T10:58:58.463Z,1022.87
2018-09-28T10:59:58.314Z,1022.89
2018-09-28T11:00:58.085Z,1023.24
2018-09-28T11:01:58.062Z,1022.89
2018-09-28T11:02:58.041Z,1025.21
2018-09-28T11:03:58.023Z,1024.90
2018-09-28T11:04:58.000Z,1024.59
2018-09-28T11:05:57.977Z,1024.23
2018-09-28T11:06:57.960Z,1024.49
2018-09-28T11:07:57.934Z,1024.78
2018-09-28T11:08:58.000Z,1025.31
2018-09-28T11:09:57.891Z,1025.32
2018-09-28T11:10:57.870Z,1025.72
2018-09-28T11:11:57.848Z,1025.95
2018-09-28T11:12:57.827Z,1022.98
2018-09-28T11:13:57.858Z,1022.79
2018-09-28T11:14:57.784Z,1022.96
2018-09-28T11:15:57.761Z,1022.96
2018-09-28T11:16:57.741Z,1022.98
2018-09-28T11:17:57.731Z,1024.59
2018-09-28T11:18:57.767Z,1024.63
2018-09-28T11:19:57.676Z,1024.64
2018-09-28T11:20:57.861Z,1024.18
2018-09-28T11:21:57.635Z,1023.64
2018-09-28T11:22:57.611Z,1022.98
2018-09-28T11:23:57.590Z,1022.99
2018-09-28T11:24:57.573Z,1022.98
2018-09-28T11:25:57.545Z,1023.01
2018-09-28T11:26:57.529Z,1023.10
2018-09-28T11:27:57.510Z,1023.61
2018-09-28T11:28:57.481Z,1023.52
2018-09-28T11:29:57.457Z,1023.42
2018-09-28T11:30:57.638Z,1024.67
2018-09-28T11:31:57.413Z,1024.79
2018-09-28T11:32:57.592Z,1025.91
2018-09-28T11:33:57.370Z,1026.07
2018-09-28T11:34:57.351Z,1024.89
2018-09-28T11:35:57.330Z,1022.87
2018-09-28T11:36:57.304Z,1022.71
2018-09-28T11:37:57.281Z,1022.81
2018-09-28T11:38:57.266Z,1022.87
2018-09-28T11:39:57.238Z,1022.79
2018-09-28T11:40:57.417Z,1023.86
2018-09-28T11:41:57.395Z,1026.20
2018-09-28T11:42:57.173Z,1025.97
2018-09-28T11:43:57.151Z,1025.41
2018-09-28T11:44:57.126Z,1025.78
2018-09-28T11:45:57.103Z,1025.82
2018-09-28T11:46:57.082Z,1026.01
2018-09-28T11:47:57.061Z,1025.85
2018-09-28T11:48:57.041Z,1025.74
2018-09-28T11:49:57.018Z,1025.85
2018-09-28T11:50:56.998Z,1025.63
2018-09-28T11:51:56.980Z,1025.65
2018-09-28T11:52:57.160Z,1025.71
2018-09-28T11:53:57.139Z,1025.13
2018-09-28T11:54:57.119Z,1024.34
2018-09-28T11:55:56.898Z,1023.19
2018-09-28T11:56:56.877Z,1023.05
2018-09-28T11:57:57.061Z,1022.95
2018-09-28T11:58:56.838Z,1022.90
2018-09-28T11:59:56.861Z,1022.90
2018-09-28T12:00:56.798Z,1022.95
2018-09-28T12:01:56.994Z,1022.85
2018-09-28T12:02:56.755Z,1022.85
2018-09-28T12:03:56.737Z,1022.83
2018-09-28T12:04:56.728Z,1022.78